Time;durP1;ratioP1;P1;durP2;ratioP2;P2;SDS_P1;SDS_P2;PMS_P1;PMS_P2;Temp;Humidity;BMP_temperature;BMP_pressure;BME280_temperature;BME280_humidity;BME280_pressure;Samples;Min_cycle;Max_cycle;Signal;HPM_P1;HPM_P2
2022/07/06 00:01:10;;;;;;;0.10;0.10;;;14.30;99.90;;;;;;4980453;28;20444;-83
2022/07/06 00:03:35;;;;;;;0.10;0.10;;;14.30;99.90;;;;;;4986475;28;20587;-82
2022/07/06 00:06:01;;;;;;;0.20;0.20;;;14.50;99.90;;;;;;4984187;28;20220;-82
2022/07/06 00:08:26;;;;;;;0.10;0.10;;;14.40;99.90;;;;;;4987538;28;20189;-82
2022/07/06 00:10:52;;;;;;;0.10;0.10;;;14.40;99.90;;;;;;4985258;28;20242;-82
2022/07/06 00:13:17;;;;;;;0.10;0.10;;;14.30;99.90;;;;;;4987555;28;20199;-82
2022/07/06 00:15:43;;;;;;;0.10;0.10;;;14.30;99.90;;;;;;4986521;28;20195;-82
2022/07/06 00:18:08;;;;;;;0.10;0.10;;;14.30;99.90;;;;;;4980261;28;20262;-82
2022/07/06 00:20:34;;;;;;;0.10;0.10;;;14.20;99.90;;;;;;4971651;28;20189;-82
2022/07/06 00:22:59;;;;;;;0.10;0.10;;;14.20;99.90;;;;;;4983397;28;20233;-82
2022/07/06 00:25:25;;;;;;;0.10;0.10;;;14.20;99.90;;;;;;4971234;28;20213;-81
2022/07/06 00:27:50;;;;;;;0.10;0.10;;;14.20;99.90;;;;;;4985442;28;20652;-83
2022/07/06 00:30:16;;;;;;;0.10;0.10;;;14.10;99.90;;;;;;4983951;28;20193;-82
2022/07/06 00:32:41;;;;;;;0.10;0.10;;;14.10;99.90;;;;;;4988175;28;20193;-82
2022/07/06 00:35:07;;;;;;;0.10;0.10;;;14.10;99.90;;;;;;4990130;28;20709;-83
2022/07/06 00:37:33;;;;;;;0.10;0.10;;;14.00;99.90;;;;;;4985643;28;20341;-84
2022/07/06 00:39:58;;;;;;;0.10;0.10;;;14.00;99.90;;;;;;4970273;28;20173;-83
2022/07/06 00:42:24;;;;;;;0.10;0.10;;;14.00;99.90;;;;;;4984360;28;20719;-83
2022/07/06 00:44:50;;;;;;;0.10;0.10;;;14.10;99.90;;;;;;4989842;28;20199;-81
2022/07/06 00:47:15;;;;;;;0.10;0.10;;;14.00;99.90;;;;;;4984926;28;20600;-83
2022/07/06 00:52:25;;;;;;;0.10;0.10;;;14.10;99.90;;;;;;4986520;28;20216;-83
2022/07/06 00:54:51;;;;;;;0.10;0.10;;;14.10;99.90;;;;;;4987695;28;20447;-83
2022/07/06 00:57:18;;;;;;;0.10;0.10;;;14.10;99.90;;;;;;4986594;28;20185;-83
2022/07/06 00:59:43;;;;;;;0.20;0.20;;;14.00;99.90;;;;;;4985250;28;20475;-81
2022/07/06 01:02:08;;;;;;;0.10;0.10;;;14.10;99.90;;;;;;4984534;28;20447;-82
2022/07/06 01:04:34;;;;;;;0.10;0.10;;;14.10;99.90;;;;;;4984571;28;20185;-83
2022/07/06 01:07:01;;;;;;;0.10;0.10;;;14.30;99.90;;;;;;4982404;28;20194;-82
2022/07/06 01:09:27;;;;;;;0.10;0.10;;;14.10;99.90;;;;;;4990659;28;20184;-83
2022/07/06 01:11:53;;;;;;;0.17;0.17;;;14.10;99.90;;;;;;4988978;28;20443;-83
2022/07/06 01:14:20;;;;;;;0.10;0.10;;;14.10;99.90;;;;;;4989354;28;20189;-82
2022/07/06 01:16:46;;;;;;;0.10;0.10;;;14.30;99.90;;;;;;4963747;28;20444;-82
2022/07/06 01:19:11;;;;;;;0.20;0.20;;;14.20;99.90;;;;;;4989628;28;21081;-83
2022/07/06 01:21:40;;;;;;;0.10;0.10;;;14.20;99.90;;;;;;4983842;28;20640;-82
2022/07/06 01:24:06;;;;;;;0.13;0.13;;;14.10;99.90;;;;;;4988840;28;20228;-82
2022/07/06 01:26:32;;;;;;;0.10;0.10;;;14.00;99.90;;;;;;4987541;28;20518;-82
2022/07/06 01:28:57;;;;;;;0.10;0.10;;;14.10;99.90;;;;;;4988404;28;20189;-82
2022/07/06 01:31:25;;;;;;;0.10;0.10;;;14.00;99.90;;;;;;4987677;28;20200;-81
2022/07/06 01:33:52;;;;;;;0.20;0.20;;;14.00;99.90;;;;;;4988026;28;20569;-82
2022/07/06 01:36:18;;;;;;;0.10;0.10;;;14.10;99.90;;;;;;4982985;28;20444;-82
2022/07/06 01:38:48;;;;;;;0.20;0.20;;;14.00;99.90;;;;;;4986136;28;20448;-83
2022/07/06 01:41:14;;;;;;;0.10;0.10;;;14.00;99.90;;;;;;4990510;28;20429;-83
2022/07/06 01:43:40;;;;;;;0.10;0.10;;;14.00;99.90;;;;;;4981053;28;21089;-83
2022/07/06 01:46:06;;;;;;;0.20;0.20;;;14.10;99.90;;;;;;4978896;28;20440;-82
2022/07/06 01:48:31;;;;;;;0.10;0.10;;;14.10;99.90;;;;;;4978460;28;20975;-82
2022/07/06 01:50:57;;;;;;;0.10;0.10;;;14.10;99.90;;;;;;4991196;28;20665;-83
2022/07/06 01:53:23;;;;;;;0.10;0.10;;;14.10;99.90;;;;;;4974034;28;20196;-83
2022/07/06 01:55:49;;;;;;;0.10;0.10;;;14.00;99.90;;;;;;4986130;28;20198;-83
2022/07/06 01:58:14;;;;;;;0.10;0.10;;;14.00;99.90;;;;;;4992383;28;20193;-82
2022/07/06 02:00:40;;;;;;;0.17;0.17;;;14.10;99.90;;;;;;4989635;28;20443;-83
2022/07/06 02:03:06;;;;;;;0.10;0.10;;;14.00;99.90;;;;;;4990194;28;20228;-83
2022/07/06 02:05:31;;;;;;;0.10;0.10;;;14.00;99.90;;;;;;4990708;28;20546;-83
2022/07/06 02:07:57;;;;;;;0.10;0.10;;;14.00;99.90;;;;;;4990573;28;20197;-83
2022/07/06 02:10:22;;;;;;;0.10;0.10;;;14.00;99.90;;;;;;4993193;28;20243;-82
2022/07/06 02:12:48;;;;;;;0.10;0.10;;;13.80;99.90;;;;;;4993697;28;20182;-82
2022/07/06 02:15:14;;;;;;;0.10;0.10;;;13.90;99.90;;;;;;4990883;28;20729;-82
2022/07/06 02:17:39;;;;;;;0.20;0.20;;;13.80;99.90;;;;;;4989396;28;20239;-82
2022/07/06 02:20:06;;;;;;;0.20;0.20;;;13.80;99.90;;;;;;4989145;28;20205;-83
2022/07/06 02:22:31;;;;;;;0.10;0.10;;;13.90;99.90;;;;;;4991478;28;20275;-83
2022/07/06 02:24:57;;;;;;;0.10;0.10;;;14.00;99.90;;;;;;4992358;28;20491;-82
2022/07/06 02:27:22;;;;;;;0.10;0.10;;;14.00;99.90;;;;;;4973946;28;20189;-83
2022/07/06 02:29:48;;;;;;;0.10;0.10;;;13.90;99.90;;;;;;4989895;28;20220;-82
2022/07/06 02:32:14;;;;;;;0.10;0.10;;;14.00;99.90;;;;;;4989644;28;20655;-83
2022/07/06 02:34:39;;;;;;;0.10;0.10;;;13.80;99.90;;;;;;4990114;28;20189;-82
2022/07/06 02:37:05;;;;;;;0.10;0.10;;;13.80;99.90;;;;;;4989765;28;20189;-83
2022/07/06 02:39:30;;;;;;;0.10;0.10;;;13.80;99.90;;;;;;4991761;28;20193;-83
2022/07/06 02:41:56;;;;;;;0.10;0.10;;;13.90;99.90;;;;;;4992773;28;20271;-82
2022/07/06 02:44:21;;;;;;;0.10;0.10;;;14.00;99.90;;;;;;4992218;28;20363;-82
2022/07/06 02:46:47;;;;;;;0.10;0.10;;;13.90;99.90;;;;;;4987533;28;20189;-82
2022/07/06 02:49:12;;;;;;;0.10;0.10;;;13.90;99.90;;;;;;4991018;28;20208;-83
2022/07/06 02:51:38;;;;;;;0.10;0.10;;;13.90;99.90;;;;;;4989729;28;20215;-82
2022/07/06 02:54:04;;;;;;;0.10;0.10;;;13.80;99.90;;;;;;4991845;28;20224;-82
2022/07/06 02:56:30;;;;;;;0.10;0.10;;;13.70;99.90;;;;;;4988865;28;20262;-83
2022/07/06 02:58:56;;;;;;;0.10;0.10;;;13.80;99.90;;;;;;4989614;28;20456;-83
2022/07/06 03:01:21;;;;;;;0.10;0.10;;;13.80;99.90;;;;;;4985377;28;20185;-82
2022/07/06 03:03:47;;;;;;;0.10;0.10;;;13.70;99.90;;;;;;4990537;28;20225;-82
2022/07/06 03:06:12;;;;;;;0.10;0.10;;;13.60;99.90;;;;;;4990517;28;20593;-82
2022/07/06 03:08:38;;;;;;;0.10;0.10;;;13.60;99.90;;;;;;4989690;28;20203;-82
2022/07/06 03:11:03;;;;;;;0.10;0.10;;;13.70;99.90;;;;;;4991840;28;20188;-83
2022/07/06 03:13:29;;;;;;;0.10;0.10;;;13.70;99.90;;;;;;4991769;28;20193;-82
2022/07/06 03:15:55;;;;;;;0.20;0.20;;;13.70;99.90;;;;;;4992056;28;20645;-83
2022/07/06 03:18:21;;;;;;;0.10;0.10;;;13.70;99.90;;;;;;4988477;28;20189;-82
2022/07/06 03:20:46;;;;;;;0.20;0.20;;;13.70;99.90;;;;;;4990122;28;21194;-82
2022/07/06 03:23:12;;;;;;;0.20;0.20;;;13.70;99.90;;;;;;4990393;28;20236;-83
2022/07/06 03:25:37;;;;;;;0.10;0.10;;;13.70;99.90;;;;;;4990367;28;20260;-83
2022/07/06 03:28:03;;;;;;;0.10;0.10;;;13.60;99.90;;;;;;4991378;28;20239;-82
2022/07/06 03:30:28;;;;;;;0.10;0.10;;;13.60;99.90;;;;;;4973017;28;20272;-83
2022/07/06 03:32:54;;;;;;;0.10;0.10;;;13.70;99.90;;;;;;4971574;28;20224;-82
2022/07/06 03:35:19;;;;;;;0.10;0.10;;;13.60;99.90;;;;;;4991218;28;20193;-82
2022/07/06 03:37:45;;;;;;;0.10;0.10;;;13.60;99.90;;;;;;4988943;28;20193;-82
2022/07/06 03:40:11;;;;;;;0.10;0.10;;;13.70;99.90;;;;;;4986207;28;20252;-83
2022/07/06 03:42:37;;;;;;;0.10;0.10;;;13.60;99.90;;;;;;4989278;28;20235;-83
2022/07/06 03:45:04;;;;;;;0.10;0.10;;;13.70;99.90;;;;;;4989657;28;20839;-83
2022/07/06 03:47:29;;;;;;;0.10;0.10;;;13.80;99.90;;;;;;4990898;28;20180;-83
2022/07/06 03:49:55;;;;;;;0.10;0.10;;;13.80;99.90;;;;;;4989935;28;20499;-83
2022/07/06 03:52:20;;;;;;;0.10;0.10;;;13.80;99.90;;;;;;4989477;28;20263;-83
2022/07/06 03:54:46;;;;;;;0.10;0.10;;;13.70;99.90;;;;;;4991063;28;20260;-83
2022/07/06 03:57:13;;;;;;;0.10;0.10;;;13.70;99.90;;;;;;4991091;28;20193;-83
2022/07/06 03:59:39;;;;;;;0.20;0.20;;;13.70;99.90;;;;;;4987587;28;20194;-82
2022/07/06 04:02:04;;;;;;;0.10;0.10;;;13.70;99.90;;;;;;4981057;28;20823;-82
2022/07/06 04:04:30;;;;;;;0.10;0.10;;;13.80;99.90;;;;;;4986685;28;20954;-82
2022/07/06 04:06:55;;;;;;;0.10;0.10;;;13.80;99.90;;;;;;4988052;28;20276;-82
2022/07/06 04:09:21;;;;;;;0.10;0.10;;;13.90;99.90;;;;;;4969441;28;20304;-82
2022/07/06 04:11:46;;;;;;;0.10;0.10;;;13.80;99.90;;;;;;4986485;28;20645;-83
2022/07/06 04:14:12;;;;;;;0.10;0.10;;;13.70;99.90;;;;;;4989593;28;20658;-83
2022/07/06 04:16:38;;;;;;;0.10;0.10;;;13.60;99.90;;;;;;4989930;28;20695;-83
2022/07/06 04:19:03;;;;;;;0.10;0.10;;;13.60;99.90;;;;;;4988367;28;20193;-84
2022/07/06 04:21:29;;;;;;;0.10;0.10;;;13.70;99.90;;;;;;4987324;28;20596;-84
2022/07/06 04:23:54;;;;;;;0.10;0.10;;;13.70;99.90;;;;;;4972486;28;20221;-83
2022/07/06 04:26:20;;;;;;;0.10;0.10;;;13.90;99.90;;;;;;4983786;28;20200;-83
2022/07/06 04:28:45;;;;;;;0.10;0.10;;;14.00;99.90;;;;;;4977364;28;20224;-83
2022/07/06 04:31:14;;;;;;;0.10;0.10;;;14.00;99.90;;;;;;4989510;28;20599;-82
2022/07/06 04:33:41;;;;;;;0.10;0.10;;;14.10;99.90;;;;;;4989209;28;20189;-84
2022/07/06 04:36:06;;;;;;;0.20;0.20;;;14.20;99.90;;;;;;4975282;28;20454;-82
2022/07/06 04:38:32;;;;;;;0.10;0.10;;;14.30;99.90;;;;;;4988557;28;20514;-82
2022/07/06 04:40:57;;;;;;;0.10;0.10;;;14.30;99.90;;;;;;4983759;28;20653;-84
2022/07/06 04:43:23;;;;;;;0.10;0.10;;;14.20;99.90;;;;;;4980388;28;20217;-83
2022/07/06 04:45:48;;;;;;;0.10;0.10;;;14.30;99.90;;;;;;4987218;28;20197;-83
2022/07/06 04:48:14;;;;;;;0.10;0.10;;;14.40;99.90;;;;;;4987412;28;20283;-83
2022/07/06 04:50:39;;;;;;;0.10;0.10;;;14.30;99.90;;;;;;4987542;28;20185;-84
2022/07/06 04:53:05;;;;;;;0.10;0.10;;;14.30;99.90;;;;;;4983495;28;20251;-82
2022/07/06 04:55:30;;;;;;;0.10;0.10;;;14.30;99.90;;;;;;4967406;28;20196;-83
2022/07/06 04:57:56;;;;;;;0.10;0.10;;;14.10;99.90;;;;;;4984566;28;20182;-84
2022/07/06 05:00:21;;;;;;;0.10;0.10;;;14.20;99.90;;;;;;4979597;28;20654;-83
2022/07/06 05:02:47;;;;;;;0.10;0.10;;;14.30;99.90;;;;;;4982943;28;20236;-84
2022/07/06 05:05:12;;;;;;;0.10;0.10;;;14.20;99.90;;;;;;4968964;28;20561;-82
2022/07/06 05:07:39;;;;;;;0.10;0.10;;;14.30;99.90;;;;;;4967304;28;20192;-84
2022/07/06 05:10:09;;;;;;;0.10;0.10;;;14.40;99.90;;;;;;4969078;28;20185;-84
2022/07/06 05:12:35;;;;;;;0.10;0.10;;;14.50;99.90;;;;;;4987717;28;20530;-84
2022/07/06 05:15:00;;;;;;;0.10;0.10;;;14.60;99.90;;;;;;4984465;28;20520;-84
2022/07/06 05:17:26;;;;;;;0.10;0.10;;;14.60;99.90;;;;;;4987148;28;20199;-84
2022/07/06 05:19:52;;;;;;;0.10;0.10;;;14.60;99.90;;;;;;4987985;28;20705;-84
2022/07/06 05:22:18;;;;;;;0.10;0.10;;;14.60;99.90;;;;;;4986456;28;20228;-85
2022/07/06 05:24:44;;;;;;;0.10;0.10;;;14.70;99.90;;;;;;4988614;28;20458;-84
2022/07/06 05:27:09;;;;;;;0.10;0.10;;;14.70;99.90;;;;;;4989499;28;20443;-84
2022/07/06 05:29:35;;;;;;;0.10;0.10;;;14.70;99.90;;;;;;4975298;28;20187;-84
2022/07/06 05:32:01;;;;;;;0.10;0.10;;;14.70;99.90;;;;;;4975521;28;20649;-85
2022/07/06 05:34:26;;;;;;;0.10;0.10;;;14.70;99.90;;;;;;4992001;28;20818;-84
2022/07/06 05:36:52;;;;;;;0.10;0.10;;;14.70;99.90;;;;;;4989101;28;20196;-84
2022/07/06 05:39:19;;;;;;;0.10;0.10;;;14.80;99.90;;;;;;4990968;28;20556;-86
2022/07/06 05:41:45;;;;;;;0.10;0.10;;;14.90;99.90;;;;;;4975907;28;20208;-86
2022/07/06 05:44:11;;;;;;;0.10;0.10;;;14.70;99.90;;;;;;4976524;28;20480;-86
2022/07/06 05:46:36;;;;;;;0.10;0.10;;;14.80;99.90;;;;;;4995937;28;20447;-83
2022/07/06 05:51:46;;;;;;;0.10;0.10;;;14.50;99.90;;;;;;4989358;28;20220;-84
2022/07/06 05:54:11;;;;;;;0.10;0.10;;;14.70;99.90;;;;;;4991862;28;20455;-84
2022/07/06 05:56:37;;;;;;;0.10;0.10;;;14.60;99.90;;;;;;4990887;28;20197;-83
2022/07/06 05:59:02;;;;;;;0.10;0.10;;;14.80;99.90;;;;;;4991787;28;20208;-84
2022/07/06 06:01:28;;;;;;;0.10;0.10;;;14.70;99.90;;;;;;4989748;28;20247;-83
2022/07/06 06:03:53;;;;;;;0.10;0.10;;;14.80;99.90;;;;;;4973840;28;20229;-85
2022/07/06 06:06:19;;;;;;;0.10;0.10;;;15.00;99.90;;;;;;4971037;28;20204;-84
2022/07/06 06:08:45;;;;;;;0.10;0.10;;;14.90;99.90;;;;;;4989104;28;20263;-86
2022/07/06 06:11:10;;;;;;;0.10;0.10;;;15.30;99.90;;;;;;4990921;28;20604;-86
2022/07/06 06:13:36;;;;;;;0.10;0.10;;;15.60;99.90;;;;;;4972234;28;20181;-86
2022/07/06 06:16:01;;;;;;;0.10;0.10;;;15.80;99.90;;;;;;4970391;28;20190;-86
2022/07/06 06:18:27;;;;;;;0.10;0.10;;;15.80;99.90;;;;;;4975202;28;20827;-86
2022/07/06 06:20:53;;;;;;;0.10;0.10;;;15.60;99.90;;;;;;4971703;28;20204;-87
2022/07/06 06:23:18;;;;;;;0.10;0.10;;;15.50;99.90;;;;;;4982928;28;20240;-86
2022/07/06 06:25:44;;;;;;;0.10;0.10;;;15.50;99.90;;;;;;4970323;28;20185;-85
2022/07/06 06:28:10;;;;;;;0.10;0.10;;;15.50;99.90;;;;;;4989428;28;20193;-85
2022/07/06 06:30:38;;;;;;;0.10;0.10;;;15.40;99.90;;;;;;4972034;28;20186;-85
2022/07/06 06:33:20;;;;;;;0.10;0.10;;;15.50;99.90;;;;;;4971607;28;20455;-84
2022/07/06 06:35:46;;;;;;;0.10;0.10;;;15.60;99.90;;;;;;4971623;28;20444;-84
2022/07/06 06:38:13;;;;;;;0.10;0.10;;;15.60;99.90;;;;;;4991657;28;20558;-84
2022/07/06 06:40:39;;;;;;;0.10;0.10;;;15.70;99.90;;;;;;4985204;28;20440;-84
2022/07/06 06:43:04;;;;;;;0.10;0.10;;;15.80;99.90;;;;;;4990830;28;21013;-85
2022/07/06 06:45:30;;;;;;;0.10;0.10;;;15.70;99.90;;;;;;4990447;28;20436;-85
2022/07/06 06:47:56;;;;;;;0.10;0.10;;;15.70;99.90;;;;;;4982004;28;20193;-84
2022/07/06 06:50:23;;;;;;;0.10;0.10;;;15.80;99.90;;;;;;4984881;28;22282;-83
2022/07/06 06:52:49;;;;;;;0.10;0.10;;;15.60;99.90;;;;;;4991226;28;20677;-83
2022/07/06 06:55:14;;;;;;;0.10;0.10;;;15.80;99.90;;;;;;4990360;28;20448;-86
2022/07/06 06:57:40;;;;;;;0.10;0.10;;;15.70;99.90;;;;;;4969775;28;20976;-86
2022/07/06 07:00:06;;;;;;;0.10;0.10;;;15.70;99.90;;;;;;4973783;28;20189;-85
2022/07/06 07:02:32;;;;;;;0.10;0.10;;;15.70;99.90;;;;;;4974711;28;21840;-87
2022/07/06 07:04:57;;;;;;;0.10;0.10;;;15.70;99.90;;;;;;4983116;28;21294;-86
2022/07/06 07:07:23;;;;;;;0.10;0.10;;;15.70;99.90;;;;;;4983206;28;20193;-86
2022/07/06 07:09:48;;;;;;;0.10;0.10;;;15.60;99.90;;;;;;4982615;28;20205;-86
2022/07/06 07:12:16;;;;;;;0.10;0.10;;;15.70;99.90;;;;;;4987284;28;20587;-86
2022/07/06 07:14:42;;;;;;;0.10;0.10;;;15.70;99.90;;;;;;4979905;28;20192;-81
2022/07/06 07:17:08;;;;;;;0.10;0.10;;;15.80;99.90;;;;;;4985550;28;20503;-83
2022/07/06 07:19:34;;;;;;;0.10;0.10;;;16.00;99.90;;;;;;4985123;28;20464;-83
2022/07/06 07:21:59;;;;;;;0.10;0.10;;;16.10;99.90;;;;;;4985147;28;20243;-83
2022/07/06 07:24:25;;;;;;;0.10;0.10;;;16.20;99.90;;;;;;4985480;28;20264;-87
2022/07/06 07:26:50;;;;;;;0.10;0.10;;;16.30;99.90;;;;;;4988256;28;20181;-86
2022/07/06 07:29:16;;;;;;;0.10;0.10;;;16.40;99.90;;;;;;4976566;28;20189;-86
2022/07/06 07:31:41;;;;;;;0.10;0.10;;;16.30;99.90;;;;;;4969872;28;20259;-90
2022/07/06 07:34:07;;;;;;;0.10;0.10;;;16.10;99.90;;;;;;4989194;28;20193;-89
2022/07/06 07:36:32;;;;;;;0.10;0.10;;;16.20;99.90;;;;;;4967461;28;20189;-86
2022/07/06 07:38:58;;;;;;;0.10;0.10;;;16.40;99.90;;;;;;4988301;28;20200;-82
2022/07/06 07:41:24;;;;;;;0.10;0.10;;;16.20;99.90;;;;;;4988133;28;20275;-84
2022/07/06 07:43:49;;;;;;;0.10;0.10;;;16.40;99.90;;;;;;4989944;28;20304;-85
2022/07/06 07:46:15;;;;;;;0.10;0.10;;;17.10;99.90;;;;;;4987051;28;20177;-84
2022/07/06 07:48:41;;;;;;;0.10;0.10;;;17.20;99.90;;;;;;4986781;28;20212;-85
2022/07/06 07:51:07;;;;;;;0.10;0.10;;;17.20;99.90;;;;;;4990046;28;20417;-80
2022/07/06 07:53:32;;;;;;;0.10;0.10;;;17.20;99.90;;;;;;4989842;28;20189;-81
2022/07/06 07:55:58;;;;;;;0.10;0.10;;;17.20;99.90;;;;;;4980582;28;20686;-87
2022/07/06 07:58:24;;;;;;;0.10;0.10;;;17.30;99.90;;;;;;4984993;28;20756;-86
2022/07/06 08:00:49;;;;;;;0.10;0.10;;;17.50;99.90;;;;;;4989013;28;20189;-90
2022/07/06 08:03:17;;;;;;;0.10;0.10;;;17.60;99.90;;;;;;4991119;28;20480;-92
2022/07/06 08:05:46;;;;;;;0.10;0.10;;;17.80;99.90;;;;;;4973913;28;20177;-92
2022/07/06 08:08:12;;;;;;;0.10;0.10;;;17.50;99.90;;;;;;4989959;28;20454;-94
2022/07/06 08:10:37;;;;;;;0.10;0.10;;;17.10;99.90;;;;;;4978612;28;20456;-94
2022/07/06 08:13:03;;;;;;;0.10;0.10;;;16.90;99.90;;;;;;4991752;28;20649;-96
2022/07/06 08:15:28;;;;;;;0.10;0.10;;;16.80;99.90;;;;;;4991008;28;20289;-95
2022/07/06 08:17:54;;;;;;;0.10;0.10;;;16.50;99.90;;;;;;4996074;28;20271;-96
2022/07/06 08:20:20;;;;;;;0.10;0.10;;;16.40;99.90;;;;;;4995901;28;20551;-90
2022/07/06 08:22:45;;;;;;;0.10;0.10;;;16.40;99.90;;;;;;4993679;28;20268;-93
2022/07/06 08:25:11;;;;;;;0.10;0.10;;;16.20;99.90;;;;;;4991577;28;20223;-96
2022/07/06 08:27:36;;;;;;;0.10;0.10;;;16.30;99.90;;;;;;4985735;28;20177;-96
2022/07/06 08:30:04;;;;;;;0.10;0.10;;;16.30;99.90;;;;;;4985770;28;20212;-80
2022/07/06 08:32:30;;;;;;;0.10;0.10;;;16.40;99.90;;;;;;4986039;28;20200;-83
2022/07/06 08:34:55;;;;;;;0.10;0.10;;;16.20;99.90;;;;;;4979540;28;20448;-84
2022/07/06 08:37:21;;;;;;;0.10;0.10;;;16.30;99.90;;;;;;4987378;28;20554;-86
2022/07/06 08:39:46;;;;;;;0.10;0.10;;;16.00;99.90;;;;;;4990357;28;20562;-83
2022/07/06 08:42:15;;;;;;;0.10;0.10;;;15.70;99.90;;;;;;4990101;28;20211;-83
2022/07/06 08:44:41;;;;;;;0.10;0.10;;;15.80;99.90;;;;;;4966563;28;20327;-83
2022/07/06 08:47:07;;;;;;;0.10;0.10;;;16.00;99.90;;;;;;4962225;28;20482;-83
2022/07/06 08:49:34;;;;;;;0.10;0.10;;;16.10;99.90;;;;;;4970155;28;20930;-83
2022/07/06 08:52:02;;;;;;;0.10;0.10;;;16.30;99.90;;;;;;4988729;28;20641;-84
2022/07/06 08:54:28;;;;;;;0.10;0.10;;;16.50;99.90;;;;;;4978993;28;20914;-86
2022/07/06 08:56:54;;;;;;;0.10;0.10;;;16.70;99.90;;;;;;4985528;28;20452;-84
2022/07/06 08:59:19;;;;;;;0.10;0.10;;;16.80;99.90;;;;;;4987437;28;20450;-84
2022/07/06 09:01:46;;;;;;;0.10;0.10;;;17.00;99.90;;;;;;4986949;28;20798;-84
2022/07/06 09:04:15;;;;;;;0.10;0.10;;;17.10;99.90;;;;;;4980197;28;20224;-85
2022/07/06 09:06:42;;;;;;;0.10;0.10;;;17.30;99.90;;;;;;4982913;28;20440;-86
2022/07/06 09:09:09;;;;;;;0.10;0.10;;;17.70;99.90;;;;;;4988971;28;20444;-85
2022/07/06 09:11:37;;;;;;;0.10;0.10;;;17.80;99.90;;;;;;4982747;28;20962;-83
2022/07/06 09:14:03;;;;;;;0.10;0.10;;;18.10;99.90;;;;;;4984528;28;20964;-85
2022/07/06 09:16:32;;;;;;;0.10;0.10;;;18.20;99.90;;;;;;4985550;28;20495;-86
2022/07/06 09:18:57;;;;;;;0.10;0.10;;;18.10;99.90;;;;;;4984033;28;20905;-86
2022/07/06 09:21:25;;;;;;;0.10;0.10;;;18.30;99.90;;;;;;4988352;28;20480;-86
2022/07/06 09:24:02;;;;;;;0.10;0.10;;;18.40;99.90;;;;;;4987337;28;20666;-85
2022/07/06 09:26:28;;;;;;;0.10;0.10;;;18.10;99.90;;;;;;4990502;28;20932;-86
2022/07/06 09:28:56;;;;;;;0.10;0.10;;;18.30;99.90;;;;;;4987191;28;20440;-87
2022/07/06 09:31:21;;;;;;;0.10;0.00;;;18.20;99.90;;;;;;4981260;28;20424;-86
2022/07/06 09:34:01;;;;;;;0.10;0.10;;;17.70;99.90;;;;;;4979908;28;20441;-84
2022/07/06 09:36:44;;;;;;;0.10;0.10;;;17.70;99.90;;;;;;4982951;28;20181;-84
2022/07/06 09:39:24;;;;;;;0.10;0.10;;;17.70;99.90;;;;;;4979827;28;20994;-84
2022/07/06 09:41:52;;;;;;;0.10;0.10;;;17.70;99.90;;;;;;4982012;28;20436;-84
2022/07/06 09:44:26;;;;;;;0.10;0.10;;;17.80;99.90;;;;;;4984172;28;20479;-85
2022/07/06 09:46:54;;;;;;;0.10;0.10;;;17.50;99.90;;;;;;4987464;28;21054;-83
2022/07/06 09:49:21;;;;;;;0.10;0.10;;;17.70;99.90;;;;;;4986644;28;20595;-85
2022/07/06 09:51:49;;;;;;;0.10;0.10;;;17.70;99.90;;;;;;4979867;28;20451;-85
2022/07/06 09:54:15;;;;;;;0.10;0.10;;;17.70;99.90;;;;;;4983980;28;20837;-84
2022/07/06 09:56:43;;;;;;;0.10;0.10;;;18.00;99.90;;;;;;4986334;28;20455;-85
2022/07/06 09:59:10;;;;;;;0.10;0.10;;;18.00;99.90;;;;;;4984942;28;20444;-86
2022/07/06 10:01:39;;;;;;;0.10;0.10;;;17.90;99.90;;;;;;4984484;28;20444;-85
2022/07/06 10:04:09;;;;;;;0.10;0.10;;;17.80;99.90;;;;;;4989485;28;20520;-86
2022/07/06 10:06:35;;;;;;;0.10;0.10;;;17.70;99.90;;;;;;4984368;28;20474;-86
2022/07/06 10:09:05;;;;;;;0.10;0.10;;;18.00;99.90;;;;;;4979925;28;20455;-85
2022/07/06 10:11:34;;;;;;;0.10;0.10;;;18.50;99.90;;;;;;4991679;28;20659;-86
2022/07/06 10:14:03;;;;;;;0.10;0.10;;;18.90;99.90;;;;;;4987904;28;20451;-83
2022/07/06 10:16:30;;;;;;;0.10;0.00;;;19.10;99.90;;;;;;4991751;28;20531;-85
2022/07/06 10:18:57;;;;;;;0.10;0.00;;;19.20;99.90;;;;;;4989584;28;20804;-83
2022/07/06 10:21:23;;;;;;;0.10;0.10;;;19.30;99.90;;;;;;4986745;28;20472;-87
2022/07/06 10:23:50;;;;;;;0.10;0.00;;;18.90;99.90;;;;;;4994220;28;20474;-84
2022/07/06 10:26:17;;;;;;;0.10;0.00;;;18.90;99.90;;;;;;4991626;28;20451;-86
2022/07/06 10:28:44;;;;;;;0.10;0.00;;;18.40;99.90;;;;;;4992969;28;20796;-86
2022/07/06 10:31:10;;;;;;;0.10;0.10;;;18.30;99.90;;;;;;4993118;28;20424;-84
2022/07/06 10:33:38;;;;;;;0.10;0.10;;;17.80;99.90;;;;;;4983151;28;20436;-84
2022/07/06 10:36:04;;;;;;;0.10;0.10;;;17.80;99.90;;;;;;4986613;28;20939;-85
2022/07/06 10:38:32;;;;;;;0.10;0.10;;;17.60;99.90;;;;;;4983721;28;20462;-85
2022/07/06 10:41:09;;;;;;;0.10;0.10;;;17.40;99.90;;;;;;4987973;28;20185;-84
2022/07/06 10:43:35;;;;;;;0.10;0.10;;;17.50;99.90;;;;;;4989013;28;20567;-85
2022/07/06 10:46:13;;;;;;;0.10;0.10;;;17.50;99.90;;;;;;4990028;28;20474;-86
2022/07/06 10:48:40;;;;;;;0.10;0.10;;;17.50;99.90;;;;;;4982610;28;20443;-86
2022/07/06 10:51:07;;;;;;;0.10;0.10;;;17.70;99.90;;;;;;4981970;28;20538;-85
2022/07/06 10:53:40;;;;;;;0.10;0.10;;;17.80;99.90;;;;;;4966104;28;20487;-87
2022/07/06 10:56:11;;;;;;;0.10;0.10;;;18.10;99.90;;;;;;4988680;28;20960;-86
2022/07/06 10:58:40;;;;;;;0.10;0.10;;;18.30;99.90;;;;;;4985355;28;21032;-85
2022/07/06 11:01:06;;;;;;;0.10;0.10;;;18.60;99.90;;;;;;4967574;28;20459;-86
2022/07/06 11:03:55;;;;;;;0.10;0.00;;;19.10;99.90;;;;;;4990012;28;20488;-85
2022/07/06 11:06:23;;;;;;;0.10;0.00;;;18.80;99.90;;;;;;4981120;28;20568;-86
2022/07/06 11:08:57;;;;;;;0.10;0.10;;;19.80;99.90;;;;;;4976125;28;20453;-87
2022/07/06 11:11:26;;;;;;;0.10;0.10;;;20.70;99.90;;;;;;4971442;28;20864;-86
2022/07/06 11:13:58;;;;;;;0.10;0.00;;;21.50;99.90;;;;;;4987339;28;20452;-87
2022/07/06 11:16:26;;;;;;;0.10;0.00;;;22.20;99.90;;;;;;4983783;28;20931;-85
2022/07/06 11:19:13;;;;;;;0.10;0.00;;;21.70;99.90;;;;;;4989345;28;20559;-87
2022/07/06 11:21:48;;;;;;;0.10;0.00;;;21.10;99.90;;;;;;4982564;28;20838;-87
2022/07/06 11:24:16;;;;;;;0.10;0.00;;;20.20;99.90;;;;;;4986332;28;20545;-86
2022/07/06 11:26:45;;;;;;;0.10;0.00;;;20.40;99.90;;;;;;4983412;28;20960;-87
2022/07/06 11:29:11;;;;;;;0.10;0.00;;;20.00;99.90;;;;;;4979184;28;20487;-87
2022/07/06 11:31:42;;;;;;;0.10;0.00;;;19.60;99.90;;;;;;4986549;28;20436;-86
2022/07/06 11:34:10;;;;;;;0.10;0.10;;;18.60;99.90;;;;;;4963382;28;20490;-83
2022/07/06 11:36:37;;;;;;;0.10;0.00;;;18.20;99.90;;;;;;4981343;28;20509;-85
2022/07/06 11:39:05;;;;;;;0.10;0.10;;;17.90;99.90;;;;;;4990750;28;20817;-84
2022/07/06 11:41:31;;;;;;;0.10;0.10;;;17.60;99.90;;;;;;4983965;28;20447;-85
2022/07/06 11:43:58;;;;;;;0.10;0.10;;;17.60;99.90;;;;;;4964807;28;20483;-83
2022/07/06 11:46:29;;;;;;;0.10;0.10;;;17.60;99.90;;;;;;4978049;28;20494;-84
2022/07/06 11:48:57;;;;;;;0.10;0.10;;;17.70;99.90;;;;;;4981715;28;20614;-86
2022/07/06 11:51:25;;;;;;;0.10;0.10;;;17.90;99.90;;;;;;4982862;28;20799;-85
2022/07/06 11:53:53;;;;;;;0.10;0.10;;;17.90;99.90;;;;;;4988846;28;20482;-88
2022/07/06 11:56:21;;;;;;;0.10;0.10;;;18.20;99.90;;;;;;4987022;28;20440;-85
2022/07/06 11:58:49;;;;;;;0.10;0.10;;;18.50;99.90;;;;;;4959034;28;20460;-84
2022/07/06 12:01:15;;;;;;;0.10;0.10;;;18.80;99.90;;;;;;4984847;28;20452;-86
2022/07/06 12:03:41;;;;;;;0.10;0.10;;;19.40;99.90;;;;;;4984028;28;20543;-85
2022/07/06 12:06:14;;;;;;;0.10;0.00;;;19.80;99.90;;;;;;4962980;28;20193;-85
2022/07/06 12:08:48;;;;;;;0.10;0.10;;;20.20;99.90;;;;;;4985792;28;20487;-85
2022/07/06 12:11:25;;;;;;;0.10;0.00;;;20.60;99.90;;;;;;4983432;28;20510;-85
2022/07/06 12:13:52;;;;;;;0.10;0.00;;;20.80;99.90;;;;;;4973470;28;20947;-84
2022/07/06 12:16:19;;;;;;;0.10;0.00;;;21.40;99.90;;;;;;4971594;28;20490;-84
2022/07/06 12:18:47;;;;;;;0.10;0.00;;;22.30;99.90;;;;;;4992166;28;20573;-87
2022/07/06 12:21:18;;;;;;;0.10;0.00;;;21.80;99.90;;;;;;4989415;28;20443;-84
2022/07/06 12:23:46;;;;;;;0.10;0.00;;;21.40;99.90;;;;;;4988946;28;20499;-86
2022/07/06 12:26:13;;;;;;;0.10;0.00;;;22.50;99.90;;;;;;4986801;28;20456;-84
2022/07/06 12:28:39;;;;;;;0.10;0.00;;;22.60;99.90;;;;;;4982156;28;20448;-84
2022/07/06 12:31:05;;;;;;;0.10;0.00;;;22.40;99.90;;;;;;4972842;28;20531;-86
2022/07/06 12:33:31;;;;;;;0.10;0.00;;;22.40;99.90;;;;;;4986330;28;20542;-85
2022/07/06 12:35:57;;;;;;;0.10;0.00;;;22.30;99.90;;;;;;4970417;28;20196;-84
2022/07/06 12:38:26;;;;;;;0.10;0.00;;;22.10;99.90;;;;;;4985593;28;20668;-84
2022/07/06 12:40:53;;;;;;;0.10;0.00;;;21.60;99.90;;;;;;4988785;28;20264;-85
2022/07/06 12:43:38;;;;;;;0.10;0.00;;;21.10;99.90;;;;;;4983033;28;20847;-84
2022/07/06 12:46:27;;;;;;;0.10;0.00;;;20.40;99.90;;;;;;4972728;28;20553;-85
2022/07/06 12:48:54;;;;;;;0.10;0.00;;;19.70;99.90;;;;;;4987537;28;20449;-85
2022/07/06 12:51:20;;;;;;;0.10;0.00;;;19.40;99.90;;;;;;4988002;28;20472;-86